createdAt,value
2018-04-11T00:01:35.602Z,45.17
2018-04-11T00:04:03.967Z,46.03
2018-04-11T00:06:32.335Z,49.67
2018-04-11T00:08:59.972Z,53.47
2018-04-11T00:11:28.494Z,52.97
2018-04-11T00:13:56.093Z,49.63
2018-04-11T00:16:23.700Z,53.07
2018-04-11T00:18:51.299Z,49.73
2018-04-11T00:21:19.752Z,46.10
2018-04-11T00:23:47.383Z,43.40
2018-04-11T00:26:15.032Z,45.63
2018-04-11T00:28:43.558Z,46.93
2018-04-11T00:31:11.189Z,51.73
2018-04-11T00:33:38.784Z,50.03
2018-04-11T00:36:06.370Z,44.73
2018-04-11T00:38:34.010Z,48.33
2018-04-11T00:41:01.624Z,47.70
2018-04-11T00:43:29.235Z,48.37
2018-04-11T00:45:56.864Z,45.77
2018-04-11T00:48:24.479Z,46.30
2018-04-11T00:50:52.831Z,51.33
2018-04-11T00:53:26.361Z,50.90
2018-04-11T00:55:54.033Z,46.87
2018-04-11T00:58:21.666Z,46.13
2018-04-11T01:00:50.100Z,51.30
2018-04-11T01:03:18.718Z,46.57
2018-04-11T01:05:46.604Z,47.23
2018-04-11T01:08:14.954Z,48.80
2018-04-11T01:10:42.597Z,50.93
2018-04-11T01:13:10.224Z,45.97
2018-04-11T01:15:37.840Z,47.67
2018-04-11T01:18:05.471Z,49.27
2018-04-11T01:20:33.157Z,48.47
2018-04-11T01:23:00.737Z,49.53
2018-04-11T01:25:28.341Z,49.97
2018-04-11T01:27:56.693Z,51.00
2018-04-11T01:30:24.285Z,50.80
2018-04-11T01:32:52.633Z,52.37
2018-04-11T01:35:20.279Z,48.17
2018-04-11T01:37:47.922Z,51.47
2018-04-11T01:40:15.505Z,46.37
2018-04-11T01:42:43.175Z,46.20
2018-04-11T01:45:10.861Z,51.90
2018-04-11T01:47:38.483Z,50.10
2018-04-11T01:50:06.068Z,49.50
2018-04-11T01:52:33.726Z,44.67
2018-04-11T01:55:02.071Z,45.33
2018-04-11T01:57:29.717Z,48.60
2018-04-11T01:59:57.316Z,48.23
2018-04-11T02:02:27.266Z,47.37
2018-04-11T02:04:54.876Z,49.13
2018-04-11T02:07:22.478Z,46.33
2018-04-11T02:09:50.119Z,47.70
2018-04-11T02:12:17.712Z,48.47
2018-04-11T02:14:45.334Z,53.67
2018-04-11T02:17:12.925Z,50.57
2018-04-11T02:19:41.311Z,54.07
2018-04-11T02:22:09.697Z,67.30
2018-04-11T02:24:38.050Z,120.43
2018-04-11T02:27:05.711Z,140.37
2018-04-11T02:29:34.122Z,104.23
2018-04-11T02:32:02.615Z,141.60
2018-04-11T02:34:30.286Z,90.63
2018-04-11T02:36:58.681Z,80.43
2018-04-11T02:39:26.282Z,70.13
2018-04-11T02:41:53.918Z,63.73
2018-04-11T02:44:21.502Z,125.50
2018-04-11T02:46:49.094Z,142.47
2018-04-11T02:49:16.707Z,178.37
2018-04-11T02:51:44.287Z,91.33
2018-04-11T02:54:11.865Z,85.57
2018-04-11T02:56:39.473Z,68.17
2018-04-11T02:59:07.831Z,57.70
2018-04-11T03:01:35.419Z,59.70
2018-04-11T03:04:03.765Z,59.77
2018-04-11T03:06:31.452Z,63.33
2018-04-11T03:08:59.103Z,57.63
2018-04-11T03:11:26.736Z,62.67
2018-04-11T03:13:54.351Z,68.70
2018-04-11T03:16:21.985Z,58.77
2018-04-11T03:18:50.343Z,65.27
2018-04-11T03:21:18.020Z,61.23
2018-04-11T03:23:45.592Z,60.20
2018-04-11T03:26:13.212Z,56.93
2018-04-11T03:28:40.829Z,62.73
2018-04-11T03:31:08.484Z,63.07
2018-04-11T03:33:36.082Z,60.17
2018-04-11T03:36:03.656Z,64.57
2018-04-11T03:38:31.228Z,73.70
2018-04-11T03:40:58.842Z,68.83
2018-04-11T03:43:26.428Z,56.50
2018-04-11T03:45:54.070Z,63.97
2018-04-11T03:48:21.685Z,62.27
2018-04-11T03:50:49.336Z,65.17
2018-04-11T03:53:16.932Z,63.37
2018-04-11T03:55:44.579Z,70.90
2018-04-11T03:58:12.162Z,67.63
2018-04-11T04:00:39.738Z,64.63
2018-04-11T04:03:08.129Z,62.63
2018-04-11T04:05:36.471Z,67.10
2018-04-11T04:08:04.085Z,76.73
2018-04-11T04:10:32.411Z,76.97
2018-04-11T04:13:00.024Z,76.23
2018-04-11T04:15:40.430Z,78.43
2018-04-11T04:18:19.934Z,74.17
2018-04-11T04:20:47.582Z,81.90
2018-04-11T04:23:15.156Z,76.00
2018-04-11T04:25:43.520Z,78.60
2018-04-11T04:28:11.123Z,85.93
2018-04-11T04:30:39.434Z,83.60
2018-04-11T04:33:07.046Z,82.10
2018-04-11T04:35:35.460Z,81.23
2018-04-11T04:38:03.838Z,93.00
2018-04-11T04:40:31.500Z,88.47
2018-04-11T04:42:59.112Z,87.50
2018-04-11T04:45:26.723Z,111.13
2018-04-11T04:47:54.312Z,90.77
2018-04-11T04:50:22.652Z,84.20
2018-04-11T04:52:51.032Z,82.93
2018-04-11T04:55:19.429Z,80.97
2018-04-11T04:57:47.789Z,85.13
2018-04-11T05:00:15.415Z,77.33
2018-04-11T05:02:43.014Z,80.30
2018-04-11T05:05:10.759Z,90.27
2018-04-11T05:07:38.848Z,92.67
2018-04-11T05:10:06.483Z,87.47
2018-04-11T05:12:34.080Z,88.33
2018-04-11T05:15:01.715Z,92.27
2018-04-11T05:17:29.301Z,87.90
2018-04-11T05:19:56.907Z,84.40
2018-04-11T05:22:25.333Z,92.33
2018-04-11T05:24:53.715Z,99.17
2018-04-11T05:27:21.355Z,102.80
2018-04-11T05:29:48.949Z,101.87
2018-04-11T05:32:16.581Z,94.80
2018-04-11T05:34:44.997Z,101.63
2018-04-11T05:37:12.619Z,118.47
2018-04-11T05:39:41.010Z,150.13
2018-04-11T05:42:09.561Z,173.10
2018-04-11T05:44:37.807Z,164.93
2018-04-11T05:47:05.430Z,160.57
2018-04-11T05:49:33.837Z,165.23
2018-04-11T05:52:01.447Z,181.37
2018-04-11T05:54:29.096Z,149.20
2018-04-11T05:56:56.800Z,125.10
2018-04-11T05:59:24.448Z,111.87
2018-04-11T06:01:52.735Z,109.57
2018-04-11T06:04:20.390Z,107.77
2018-04-11T06:06:48.014Z,99.83
2018-04-11T06:09:16.390Z,112.40
2018-04-11T06:11:44.779Z,106.97
2018-04-11T06:14:12.444Z,103.23
2018-04-11T06:16:40.788Z,99.53
2018-04-11T06:19:08.392Z,98.97
2018-04-11T06:21:36.022Z,91.70
2018-04-11T06:24:03.657Z,89.57
2018-04-11T06:26:31.303Z,92.33
2018-04-11T06:28:58.901Z,89.03
2018-04-11T06:31:26.486Z,80.47
2018-04-11T06:33:54.879Z,82.87
2018-04-11T06:36:22.939Z,78.77
2018-04-11T06:38:50.548Z,86.70
2018-04-11T06:41:18.137Z,85.47
2018-04-11T06:43:45.725Z,86.30
2018-04-11T06:46:13.418Z,79.67
2018-04-11T06:48:41.057Z,83.37
2018-04-11T06:51:08.680Z,90.60
2018-04-11T06:53:36.279Z,89.23
2018-04-11T06:56:03.899Z,97.37
2018-04-11T06:58:32.288Z,84.00
2018-04-11T07:00:59.907Z,77.10
2018-04-11T07:03:27.500Z,83.00
2018-04-11T07:05:55.102Z,79.93
2018-04-11T07:08:22.708Z,77.47
2018-04-11T07:10:50.310Z,73.37
2018-04-11T07:13:18.687Z,81.40
2018-04-11T07:15:48.018Z,78.50
2018-04-11T07:18:15.637Z,77.30
2018-04-11T07:20:43.285Z,77.70
2018-04-11T07:23:11.555Z,82.37
2018-04-11T07:25:39.959Z,79.63
2018-04-11T07:28:07.561Z,87.40
2018-04-11T07:30:35.151Z,92.33
2018-04-11T07:33:02.781Z,88.50
2018-04-11T07:35:31.224Z,83.03
2018-04-11T07:37:58.832Z,95.33
2018-04-11T07:40:27.307Z,95.27
2018-04-11T07:42:54.892Z,101.17
2018-04-11T07:45:23.266Z,93.47
2018-04-11T07:47:50.895Z,91.27
2018-04-11T07:50:18.512Z,102.53
2018-04-11T07:52:46.159Z,95.77
2018-04-11T07:55:14.566Z,94.70
2018-04-11T07:57:42.139Z,89.63
2018-04-11T08:00:09.724Z,89.33
2018-04-11T08:02:37.377Z,87.97
2018-04-11T08:05:05.015Z,83.67
2018-04-11T08:07:33.445Z,84.03
2018-04-11T08:10:01.073Z,82.73
2018-04-11T08:12:29.442Z,79.90
2018-04-11T08:14:57.063Z,76.03
2018-04-11T08:17:24.738Z,81.77
2018-04-11T08:19:52.438Z,75.43
2018-04-11T08:22:20.851Z,80.87
2018-04-11T08:24:48.443Z,82.77
2018-04-11T08:27:16.145Z,85.70
2018-04-11T08:29:43.808Z,78.70
2018-04-11T08:32:11.477Z,73.67
2018-04-11T08:34:39.161Z,73.40
2018-04-11T08:37:07.610Z,75.13
2018-04-11T08:39:35.308Z,71.00
2018-04-11T08:42:03.010Z,77.53
2018-04-11T08:44:30.690Z,73.90
2018-04-11T08:46:58.342Z,81.70
2018-04-11T08:49:26.055Z,71.83
2018-04-11T08:51:53.690Z,74.10
2018-04-11T08:54:22.080Z,78.27
2018-04-11T08:56:49.747Z,83.60
2018-04-11T08:59:17.387Z,74.23
2018-04-11T09:01:44.972Z,71.90
2018-04-11T09:04:12.651Z,77.80
2018-04-11T09:06:40.277Z,73.17
2018-04-11T09:09:07.905Z,69.63
2018-04-11T09:11:35.538Z,73.10
2018-04-11T09:14:03.161Z,73.63
2018-04-11T09:16:31.513Z,67.73
2018-04-11T09:18:59.141Z,74.23
2018-04-11T09:21:26.798Z,73.80
2018-04-11T09:23:54.502Z,66.87
2018-04-11T09:26:22.192Z,67.07
2018-04-11T09:28:50.580Z,71.83
2018-04-11T09:31:18.213Z,66.83
2018-04-11T09:33:45.800Z,71.33
2018-04-11T09:36:13.424Z,70.73
2018-04-11T09:38:41.034Z,69.37
2018-04-11T09:41:08.649Z,66.73
2018-04-11T09:43:36.285Z,68.57
2018-04-11T09:46:04.737Z,64.10
2018-04-11T09:48:32.389Z,68.17
2018-04-11T09:50:59.993Z,72.37
2018-04-11T09:53:27.608Z,65.07
2018-04-11T09:55:55.279Z,65.07
2018-04-11T09:58:23.048Z,68.90
2018-04-11T10:00:53.553Z,73.30
2018-04-11T10:03:23.251Z,64.60
2018-04-11T10:05:51.636Z,72.33
2018-04-11T10:08:20.017Z,75.07
2018-04-11T10:10:48.379Z,73.97
2018-04-11T10:13:15.987Z,72.60
2018-04-11T10:15:43.647Z,71.93
2018-04-11T10:18:12.084Z,70.10
2018-04-11T10:20:39.731Z,69.13
2018-04-11T10:23:07.449Z,58.37
2018-04-11T10:25:35.905Z,61.03
2018-04-11T10:28:03.515Z,59.20
2018-04-11T10:30:31.876Z,53.17
2018-04-11T10:33:00.259Z,56.23
2018-04-11T10:35:27.929Z,52.93
2018-04-11T10:37:55.540Z,53.63
2018-04-11T10:40:23.213Z,54.13
2018-04-11T10:42:51.162Z,53.33
2018-04-11T10:45:18.784Z,50.40
2018-04-11T10:47:46.410Z,52.93
2018-04-11T10:50:14.026Z,54.30
2018-04-11T10:52:41.652Z,53.73
2018-04-11T10:55:09.249Z,51.60
2018-04-11T10:57:36.848Z,53.50
2018-04-11T11:00:06.200Z,48.70
2018-04-11T11:02:33.862Z,50.77
2018-04-11T11:05:01.519Z,52.17
2018-04-11T11:07:29.900Z,52.93
2018-04-11T11:09:57.691Z,50.93
2018-04-11T11:12:26.603Z,50.10
2018-04-11T11:14:54.259Z,55.80
2018-04-11T11:17:21.910Z,51.37
2018-04-11T11:20:02.174Z,51.53
2018-04-11T11:22:29.865Z,53.23
2018-04-11T11:24:58.371Z,54.17
2018-04-11T11:27:27.205Z,53.77
2018-04-11T11:29:54.820Z,54.37
2018-04-11T11:32:23.206Z,56.07
2018-04-11T11:34:50.843Z,56.93
2018-04-11T11:37:18.469Z,60.27
2018-04-11T11:39:46.125Z,59.53
2018-04-11T11:42:13.781Z,57.27
2018-04-11T11:44:42.185Z,53.30
2018-04-11T11:47:09.789Z,57.67
2018-04-11T11:49:37.824Z,59.87
2018-04-11T11:52:05.489Z,62.40
2018-04-11T11:54:33.095Z,59.83
2018-04-11T11:57:00.701Z,59.00
2018-04-11T11:59:29.097Z,62.60
2018-04-11T12:01:57.453Z,63.57
2018-04-11T12:04:25.104Z,64.80
2018-04-11T12:06:52.695Z,65.07
2018-04-11T12:09:21.056Z,62.23
2018-04-11T12:11:48.660Z,67.70
2018-04-11T12:14:16.236Z,73.80
2018-04-11T12:16:43.832Z,76.00
2018-04-11T12:19:11.424Z,72.27
2018-04-11T12:21:39.106Z,74.57
2018-04-11T12:24:07.496Z,77.53
2018-04-11T12:26:35.893Z,83.43
2018-04-11T12:29:03.475Z,78.67
2018-04-11T12:31:31.070Z,84.60
2018-04-11T12:33:58.688Z,80.03
2018-04-11T12:36:26.268Z,84.07
2018-04-11T12:38:53.894Z,82.93
2018-04-11T12:41:21.496Z,83.53
2018-04-11T12:43:49.142Z,83.47
2018-04-11T12:46:17.654Z,76.40
2018-04-11T12:48:45.261Z,86.33
2018-04-11T12:51:12.866Z,80.27
2018-04-11T12:53:40.558Z,78.20
2018-04-11T12:56:08.137Z,84.80
2018-04-11T12:58:36.370Z,84.07
2018-04-11T13:01:04.770Z,84.83
2018-04-11T13:03:32.501Z,82.87
2018-04-11T13:06:00.879Z,83.50
2018-04-11T13:08:28.507Z,83.77
2018-04-11T13:10:56.119Z,84.40
2018-04-11T13:13:23.737Z,88.60
2018-04-11T13:15:51.341Z,83.50
2018-04-11T13:18:19.001Z,86.30
2018-04-11T13:20:46.579Z,82.97
2018-04-11T13:23:14.945Z,84.50
2018-04-11T13:25:42.587Z,80.13
2018-04-11T13:28:10.145Z,80.03
2018-04-11T13:30:37.818Z,79.30
2018-04-11T13:33:06.576Z,74.03
2018-04-11T13:35:34.290Z,76.30
2018-04-11T13:38:02.621Z,77.67
2018-04-11T13:40:30.470Z,76.60
2018-04-11T13:42:58.080Z,83.47
2018-04-11T13:45:25.701Z,84.33
2018-04-11T13:47:53.336Z,83.10
2018-04-11T13:50:21.005Z,75.37
2018-04-11T13:52:48.648Z,81.20
2018-04-11T13:55:16.298Z,81.20
2018-04-11T13:57:43.919Z,75.73
2018-04-11T14:00:11.496Z,77.47
2018-04-11T14:02:40.007Z,73.53
2018-04-11T14:05:07.594Z,68.90
2018-04-11T14:07:35.213Z,70.10
2018-04-11T14:10:02.810Z,73.43
2018-04-11T14:12:30.428Z,63.03
2018-04-11T14:14:58.088Z,61.33
2018-04-11T14:17:25.786Z,62.07
2018-04-11T14:19:53.484Z,64.83
2018-04-11T14:22:21.712Z,70.50
2018-04-11T14:24:49.376Z,70.27
2018-04-11T14:27:16.964Z,62.87
2018-04-11T14:29:44.579Z,63.93
2018-04-11T14:32:12.192Z,63.80
2018-04-11T14:34:39.813Z,63.47
2018-04-11T14:37:07.485Z,59.43
2018-04-11T14:39:35.072Z,62.17
2018-04-11T14:42:02.651Z,59.93
2018-04-11T14:44:32.155Z,56.17
2018-04-11T14:46:59.783Z,59.10
2018-04-11T14:49:27.359Z,59.57
2018-04-11T14:51:54.956Z,63.07
2018-04-11T14:54:22.548Z,76.73
2018-04-11T14:56:50.145Z,85.93
2018-04-11T14:59:17.721Z,83.40
2018-04-11T15:01:45.325Z,88.13
2018-04-11T15:04:13.678Z,86.67
2018-04-11T15:06:41.282Z,81.10
2018-04-11T15:09:09.870Z,82.73
2018-04-11T15:11:38.254Z,85.73
2018-04-11T15:14:06.625Z,81.77
2018-04-11T15:16:34.206Z,81.70
2018-04-11T15:19:01.797Z,89.43
2018-04-11T15:21:29.397Z,86.17
2018-04-11T15:23:57.027Z,86.13
2018-04-11T15:26:24.616Z,88.17
2018-04-11T15:28:52.217Z,88.97
2018-04-11T15:31:20.700Z,83.57
2018-04-11T15:33:48.357Z,89.13
2018-04-11T15:36:16.837Z,88.47
2018-04-11T15:38:44.511Z,89.50
2018-04-11T15:41:12.962Z,85.80
2018-04-11T15:43:40.577Z,92.30
2018-04-11T15:49:17.910Z,97.10
2018-04-11T15:51:46.261Z,99.50
2018-04-11T15:54:13.884Z,101.33
2018-04-11T15:56:41.474Z,99.13
2018-04-11T15:59:09.066Z,98.87
2018-04-11T16:01:36.750Z,93.03
2018-04-11T16:04:04.355Z,85.23
2018-04-11T16:06:32.263Z,86.60
2018-04-11T16:08:59.927Z,83.47
2018-04-11T16:11:27.560Z,88.37
2018-04-11T16:13:55.132Z,91.43
2018-04-11T16:16:23.535Z,90.83
2018-04-11T16:18:51.183Z,93.37
2018-04-11T16:21:18.787Z,98.70
2018-04-11T16:23:46.472Z,94.13
2018-04-11T16:26:14.091Z,99.10
2018-04-11T16:28:42.438Z,98.47
2018-04-11T16:31:10.046Z,102.30
2018-04-11T16:33:38.416Z,100.30
2018-04-11T16:36:06.028Z,101.97
2018-04-11T16:38:33.650Z,102.00
2018-04-11T16:41:01.992Z,101.40
2018-04-11T16:43:29.730Z,106.37
2018-04-11T16:45:57.353Z,104.90
2018-04-11T16:48:25.026Z,103.33
2018-04-11T16:50:52.610Z,101.93
2018-04-11T16:53:21.894Z,97.60
2018-04-11T16:55:49.500Z,94.60
2018-04-11T16:58:17.091Z,88.63
2018-04-11T17:00:44.670Z,90.33
2018-04-11T17:03:12.226Z,91.27
2018-04-11T17:05:39.811Z,91.23
2018-04-11T17:08:07.423Z,88.60
2018-04-11T17:10:35.026Z,98.33
2018-04-11T17:13:03.320Z,98.20
2018-04-11T17:15:30.918Z,91.57
2018-04-11T17:17:59.205Z,98.03
2018-04-11T17:20:40.135Z,90.20
2018-04-11T17:23:19.524Z,93.03
2018-04-11T17:25:58.870Z,88.83
2018-04-11T17:28:38.320Z,93.90
2018-04-11T17:31:26.769Z,85.43
2018-04-11T17:33:55.090Z,82.20
2018-04-11T17:36:22.711Z,86.03
2018-04-11T17:38:50.304Z,82.87
2018-04-11T17:41:17.904Z,73.60
2018-04-11T17:43:46.284Z,80.20
2018-04-11T17:46:13.880Z,80.87
2018-04-11T17:48:41.460Z,75.57
2018-04-11T17:51:09.083Z,81.17
2018-04-11T17:53:37.549Z,80.93
2018-04-11T17:56:05.897Z,77.93
2018-04-11T17:58:33.497Z,83.27
2018-04-11T18:01:01.847Z,82.43
2018-04-11T18:03:29.485Z,73.90
2018-04-11T18:05:57.080Z,76.27
2018-04-11T18:08:24.746Z,75.90
2018-04-11T18:10:52.351Z,69.53
2018-04-11T18:13:20.692Z,66.90
2018-04-11T18:15:48.345Z,66.17
2018-04-11T18:18:15.965Z,68.33
2018-04-11T18:20:44.302Z,70.30
2018-04-11T18:23:12.584Z,64.83
2018-04-11T18:25:43.739Z,61.13
2018-04-11T18:28:12.307Z,56.63
2018-04-11T18:30:40.149Z,57.23
2018-04-11T18:33:07.937Z,58.57
2018-04-11T18:35:38.183Z,63.63
2018-04-11T18:38:06.776Z,62.60
2018-04-11T18:40:34.475Z,60.60
2018-04-11T18:43:02.914Z,56.83
2018-04-11T18:45:31.210Z,56.07
2018-04-11T18:48:01.292Z,56.80
2018-04-11T18:50:28.922Z,57.73
2018-04-11T18:52:56.816Z,61.67
2018-04-11T18:55:24.524Z,56.80
2018-04-11T18:57:52.150Z,63.00
2018-04-11T19:00:19.729Z,60.57
2018-04-11T19:02:47.384Z,59.13
2018-04-11T19:05:14.999Z,60.07
2018-04-11T19:07:42.819Z,63.53
2018-04-11T19:10:10.529Z,62.40
2018-04-11T19:12:38.116Z,59.47
2018-04-11T19:15:06.545Z,64.67
2018-04-11T19:17:34.169Z,63.53
2018-04-11T19:20:01.760Z,65.10
2018-04-11T19:22:30.119Z,69.00
2018-04-11T19:24:57.693Z,66.97
2018-04-11T19:27:25.326Z,62.63
2018-04-11T19:29:52.894Z,66.60
2018-04-11T19:32:20.496Z,60.93
2018-04-11T19:34:48.077Z,63.00
2018-04-11T19:37:15.659Z,64.37
2018-04-11T19:39:43.250Z,65.60
2018-04-11T19:42:10.823Z,70.17
2018-04-11T19:44:38.421Z,65.40
2018-04-11T19:47:06.779Z,63.07
2018-04-11T19:49:34.393Z,62.80
2018-04-11T19:52:02.061Z,64.03
2018-04-11T19:54:30.348Z,64.03
2018-04-11T19:56:57.972Z,62.57
2018-04-11T19:59:26.377Z,61.93
2018-04-11T20:01:53.969Z,61.77
2018-04-11T20:04:21.616Z,62.57
2018-04-11T20:06:49.210Z,60.60
2018-04-11T20:09:16.813Z,55.10
2018-04-11T20:11:44.454Z,59.43
2018-04-11T20:14:12.036Z,64.00
2018-04-11T20:16:39.660Z,64.27
2018-04-11T20:19:07.262Z,58.20
2018-04-11T20:21:34.832Z,61.80
2018-04-11T20:24:02.471Z,57.40
2018-04-11T20:26:30.116Z,57.80
2018-04-11T20:28:57.699Z,62.43
2018-04-11T20:31:25.313Z,62.77
2018-04-11T20:33:53.721Z,67.43
2018-04-11T20:36:21.316Z,64.30
2018-04-11T20:38:48.903Z,62.97
2018-04-11T20:41:16.513Z,65.50
2018-04-11T20:43:44.123Z,64.13
2018-04-11T20:46:12.177Z,63.27
2018-04-11T20:48:40.079Z,64.80
2018-04-11T20:51:07.779Z,62.40
2018-04-11T20:53:35.419Z,69.17
2018-04-11T20:56:03.906Z,68.50
2018-04-11T20:58:32.392Z,67.00
2018-04-11T21:01:00.028Z,67.13
2018-04-11T21:03:27.640Z,68.97
2018-04-11T21:05:56.303Z,73.33
2018-04-11T21:08:24.042Z,66.37
2018-04-11T21:10:52.910Z,73.00
2018-04-11T21:13:21.324Z,65.93
2018-04-11T21:15:48.899Z,66.33
2018-04-11T21:18:16.464Z,69.13
2018-04-11T21:20:44.933Z,68.77
2018-04-11T21:23:12.559Z,68.93
2018-04-11T21:25:40.193Z,64.53
2018-04-11T21:28:07.771Z,69.97
2018-04-11T21:30:35.355Z,68.53
2018-04-11T21:33:03.749Z,68.00
2018-04-11T21:35:32.095Z,69.33
2018-04-11T21:37:59.761Z,67.20
2018-04-11T21:40:27.337Z,71.73
2018-04-11T21:42:54.943Z,71.60
2018-04-11T21:45:22.577Z,71.43
2018-04-11T21:47:51.696Z,70.47
2018-04-11T21:50:20.069Z,72.93
2018-04-11T21:52:47.635Z,68.70
2018-04-11T21:55:16.013Z,75.70
2018-04-11T21:57:43.620Z,74.47
2018-04-11T22:00:11.201Z,72.33
2018-04-11T22:02:38.795Z,77.47
2018-04-11T22:05:06.794Z,71.70
2018-04-11T22:07:35.637Z,70.37
2018-04-11T22:10:03.244Z,77.83
2018-04-11T22:12:30.909Z,72.13
2018-04-11T22:14:59.267Z,85.40
2018-04-11T22:17:26.835Z,77.00
2018-04-11T22:19:54.468Z,79.30
2018-04-11T22:22:22.143Z,76.00
2018-04-11T22:24:50.462Z,76.57
2018-04-11T22:27:18.893Z,71.80
2018-04-11T22:29:46.485Z,77.50
2018-04-11T22:32:14.059Z,72.73
2018-04-11T22:34:41.635Z,77.77
2018-04-11T22:37:09.226Z,72.77
2018-04-11T22:39:36.807Z,74.73
2018-04-11T22:42:04.391Z,73.93
2018-04-11T22:44:31.969Z,90.17
2018-04-11T22:46:59.549Z,86.43
2018-04-11T22:49:27.137Z,91.00
2018-04-11T22:51:55.521Z,95.70
2018-04-11T22:54:23.907Z,93.43
2018-04-11T22:56:51.479Z,97.37
2018-04-11T22:59:19.140Z,98.53
2018-04-11T23:01:47.616Z,89.20
2018-04-11T23:04:15.188Z,90.13
2018-04-11T23:06:42.780Z,92.20
2018-04-11T23:09:10.380Z,92.20
2018-04-11T23:11:38.013Z,98.37
2018-04-11T23:14:05.636Z,93.33
2018-04-11T23:16:33.301Z,95.33
2018-04-11T23:19:01.546Z,100.40
2018-04-11T23:21:29.177Z,98.93
2018-04-11T23:23:57.717Z,93.83
2018-04-11T23:26:25.313Z,93.53
2018-04-11T23:28:52.948Z,99.63
2018-04-11T23:31:20.559Z,95.30
2018-04-11T23:33:48.907Z,98.83
2018-04-11T23:36:16.625Z,97.90
2018-04-11T23:38:44.223Z,102.70
2018-04-11T23:41:11.840Z,100.27
2018-04-11T23:43:40.197Z,97.23
2018-04-11T23:46:07.802Z,101.07
2018-04-11T23:48:35.414Z,99.07
2018-04-11T23:51:03.803Z,104.87
2018-04-11T23:53:31.401Z,104.33
2018-04-11T23:55:59.013Z,101.30
2018-04-11T23:58:26.633Z,99.77
